sensor_id;sensor_type;location;lat;lon;timestamp;pressure;altitude;pressure_sealevel;temperature;humidity
18533;BME280;9396;51.510;11.934;2023-01-31T00:00:27;100725.88;;;3.85;100.00
18533;BME280;9396;51.510;11.934;2023-01-31T00:02:54;100734.81;;;3.83;100.00
18533;BME280;9396;51.510;11.934;2023-01-31T00:05:20;100743.75;;;3.80;100.00
18533;BME280;9396;51.510;11.934;2023-01-31T00:07:47;100742.50;;;3.86;100.00
18533;BME280;9396;51.510;11.934;2023-01-31T00:10:14;100738.63;;;3.91;100.00
18533;BME280;9396;51.510;11.934;2023-01-31T00:12:42;100737.25;;;3.86;100.00
18533;BME280;9396;51.510;11.934;2023-01-31T00:15:09;100748.31;;;3.91;100.00
18533;BME280;9396;51.510;11.934;2023-01-31T00:17:37;100745.78;;;3.89;100.00
18533;BME280;9396;51.510;11.934;2023-01-31T00:20:05;100760.09;;;3.98;100.00
18533;BME280;9396;51.510;11.934;2023-01-31T00:22:32;100774.28;;;3.95;100.00
18533;BME280;9396;51.510;11.934;2023-01-31T00:24:58;100772.63;;;3.94;100.00
18533;BME280;9396;51.510;11.934;2023-01-31T00:27:25;100772.06;;;3.77;100.00
18533;BME280;9396;51.510;11.934;2023-01-31T00:29:53;100773.53;;;3.68;100.00
18533;BME280;9396;51.510;11.934;2023-01-31T00:32:20;100780.94;;;3.62;100.00
18533;BME280;9396;51.510;11.934;2023-01-31T00:34:46;100782.88;;;3.46;100.00
18533;BME280;9396;51.510;11.934;2023-01-31T00:37:13;100780.56;;;3.41;100.00
18533;BME280;9396;51.510;11.934;2023-01-31T00:39:39;100771.19;;;3.37;100.00
18533;BME280;9396;51.510;11.934;2023-01-31T00:42:06;100778.22;;;3.37;100.00
18533;BME280;9396;51.510;11.934;2023-01-31T00:44:33;100779.81;;;3.39;100.00
18533;BME280;9396;51.510;11.934;2023-01-31T00:47:01;100783.53;;;3.49;100.00
18533;BME280;9396;51.510;11.934;2023-01-31T00:49:27;100778.72;;;3.56;100.00
18533;BME280;9396;51.510;11.934;2023-01-31T00:51:54;100773.59;;;3.40;100.00
18533;BME280;9396;51.510;11.934;2023-01-31T00:54:21;100764.06;;;3.39;100.00
18533;BME280;9396;51.510;11.934;2023-01-31T00:56:47;100782.78;;;3.47;100.00
18533;BME280;9396;51.510;11.934;2023-01-31T00:59:14;100778.69;;;3.43;100.00
18533;BME280;9396;51.510;11.934;2023-01-31T01:01:41;100785.63;;;3.44;100.00
18533;BME280;9396;51.510;11.934;2023-01-31T01:04:09;100793.22;;;3.49;100.00
18533;BME280;9396;51.510;11.934;2023-01-31T01:06:37;100787.31;;;3.45;100.00
18533;BME280;9396;51.510;11.934;2023-01-31T01:09:05;100786.91;;;3.51;100.00
18533;BME280;9396;51.510;11.934;2023-01-31T01:11:33;100796.63;;;3.63;100.00
18533;BME280;9396;51.510;11.934;2023-01-31T01:14:00;100801.34;;;3.58;100.00
18533;BME280;9396;51.510;11.934;2023-01-31T01:16:31;100807.88;;;3.65;100.00
18533;BME280;9396;51.510;11.934;2023-01-31T01:18:58;100801.50;;;3.69;100.00
18533;BME280;9396;51.510;11.934;2023-01-31T01:21:29;100806.53;;;3.72;100.00
18533;BME280;9396;51.510;11.934;2023-01-31T01:23:59;100807.50;;;3.71;100.00
18533;BME280;9396;51.510;11.934;2023-01-31T01:26:28;100815.06;;;3.76;100.00
18533;BME280;9396;51.510;11.934;2023-01-31T01:28:56;100814.16;;;3.77;100.00
18533;BME280;9396;51.510;11.934;2023-01-31T01:31:24;100816.69;;;3.78;100.00
18533;BME280;9396;51.510;11.934;2023-01-31T01:33:55;100812.69;;;3.85;100.00
18533;BME280;9396;51.510;11.934;2023-01-31T01:36:22;100822.25;;;3.86;100.00
18533;BME280;9396;51.510;11.934;2023-01-31T01:38:52;100815.97;;;3.89;100.00
18533;BME280;9396;51.510;11.934;2023-01-31T01:41:19;100812.84;;;3.96;99.90
18533;BME280;9396;51.510;11.934;2023-01-31T01:43:48;100820.31;;;4.02;99.31
18533;BME280;9396;51.510;11.934;2023-01-31T01:46:17;100820.50;;;3.99;99.42
18533;BME280;9396;51.510;11.934;2023-01-31T01:48:48;100817.59;;;4.04;99.32
18533;BME280;9396;51.510;11.934;2023-01-31T01:51:17;100822.63;;;3.94;99.47
18533;BME280;9396;51.510;11.934;2023-01-31T01:53:46;100830.50;;;3.94;98.86
18533;BME280;9396;51.510;11.934;2023-01-31T01:56:20;100832.09;;;3.97;99.27
18533;BME280;9396;51.510;11.934;2023-01-31T01:58:52;100827.22;;;3.91;99.09
18533;BME280;9396;51.510;11.934;2023-01-31T02:01:20;100826.69;;;3.86;99.28
18533;BME280;9396;51.510;11.934;2023-01-31T02:03:48;100833.53;;;3.88;99.45
18533;BME280;9396;51.510;11.934;2023-01-31T02:06:17;100830.38;;;3.83;100.00
18533;BME280;9396;51.510;11.934;2023-01-31T02:08:44;100833.31;;;3.79;100.00
18533;BME280;9396;51.510;11.934;2023-01-31T02:11:17;100831.91;;;3.73;100.00
18533;BME280;9396;51.510;11.934;2023-01-31T02:13:48;100831.88;;;3.61;100.00
18533;BME280;9396;51.510;11.934;2023-01-31T02:16:16;100841.50;;;3.74;100.00
18533;BME280;9396;51.510;11.934;2023-01-31T02:18:44;100838.53;;;3.66;99.98
18533;BME280;9396;51.510;11.934;2023-01-31T02:21:38;100837.97;;;3.61;99.21
18533;BME280;9396;51.510;11.934;2023-01-31T02:24:43;100843.25;;;3.61;98.38
18533;BME280;9396;51.510;11.934;2023-01-31T02:27:28;100853.00;;;3.59;97.92
18533;BME280;9396;51.510;11.934;2023-01-31T02:30:31;100861.34;;;3.66;96.64
18533;BME280;9396;51.510;11.934;2023-01-31T02:33:08;100857.03;;;3.65;97.13
18533;BME280;9396;51.510;11.934;2023-01-31T02:35:47;100873.91;;;3.75;96.82
18533;BME280;9396;51.510;11.934;2023-01-31T02:38:26;100869.28;;;3.78;97.01
18533;BME280;9396;51.510;11.934;2023-01-31T02:41:01;100887.13;;;3.87;97.06
18533;BME280;9396;51.510;11.934;2023-01-31T02:43:35;100886.38;;;3.85;97.17
18533;BME280;9396;51.510;11.934;2023-01-31T02:46:34;100892.38;;;3.87;97.49
18533;BME280;9396;51.510;11.934;2023-01-31T02:49:13;100887.34;;;3.70;97.48
18533;BME280;9396;51.510;11.934;2023-01-31T02:52:02;100889.25;;;3.68;98.35
18533;BME280;9396;51.510;11.934;2023-01-31T02:54:48;100889.31;;;3.67;98.50
18533;BME280;9396;51.510;11.934;2023-01-31T02:57:34;100888.84;;;3.74;98.27
18533;BME280;9396;51.510;11.934;2023-01-31T03:00:04;100882.06;;;3.84;98.53
18533;BME280;9396;51.510;11.934;2023-01-31T03:02:31;100886.72;;;3.93;97.90
18533;BME280;9396;51.510;11.934;2023-01-31T03:04:59;100891.13;;;3.93;97.84
18533;BME280;9396;51.510;11.934;2023-01-31T03:07:27;100891.03;;;3.94;98.87
18533;BME280;9396;51.510;11.934;2023-01-31T03:10:05;100903.81;;;3.86;99.22
18533;BME280;9396;51.510;11.934;2023-01-31T03:12:48;100893.34;;;3.72;99.80
18533;BME280;9396;51.510;11.934;2023-01-31T03:15:31;100901.66;;;3.66;100.00
18533;BME280;9396;51.510;11.934;2023-01-31T03:18:19;100834.63;;;3.04;100.00
18533;BME280;9396;51.510;11.934;2023-01-31T03:20:52;100898.50;;;3.33;100.00
18533;BME280;9396;51.510;11.934;2023-01-31T03:23:23;100892.88;;;3.39;100.00
18533;BME280;9396;51.510;11.934;2023-01-31T03:25:55;100896.69;;;3.48;100.00
18533;BME280;9396;51.510;11.934;2023-01-31T03:28:26;100899.44;;;3.46;100.00
18533;BME280;9396;51.510;11.934;2023-01-31T03:31:00;100902.59;;;3.51;100.00
18533;BME280;9396;51.510;11.934;2023-01-31T03:33:32;100903.09;;;3.44;100.00
18533;BME280;9396;51.510;11.934;2023-01-31T03:36:07;100909.28;;;3.43;100.00
18533;BME280;9396;51.510;11.934;2023-01-31T03:38:47;100900.97;;;3.36;100.00
18533;BME280;9396;51.510;11.934;2023-01-31T03:41:21;100914.09;;;3.36;100.00
18533;BME280;9396;51.510;11.934;2023-01-31T03:43:54;100918.13;;;3.42;100.00
18533;BME280;9396;51.510;11.934;2023-01-31T03:46:27;100935.38;;;3.46;100.00
18533;BME280;9396;51.510;11.934;2023-01-31T03:48:57;100920.19;;;3.37;100.00
18533;BME280;9396;51.510;11.934;2023-01-31T03:51:28;100923.84;;;3.48;100.00
18533;BME280;9396;51.510;11.934;2023-01-31T03:53:59;100924.03;;;3.45;100.00
18533;BME280;9396;51.510;11.934;2023-01-31T03:56:30;100915.22;;;3.46;100.00
18533;BME280;9396;51.510;11.934;2023-01-31T03:59:03;100910.16;;;3.43;100.00
18533;BME280;9396;51.510;11.934;2023-01-31T04:01:35;100912.94;;;3.40;100.00
18533;BME280;9396;51.510;11.934;2023-01-31T04:04:07;100907.13;;;3.35;100.00
18533;BME280;9396;51.510;11.934;2023-01-31T04:06:37;100912.88;;;3.27;100.00
18533;BME280;9396;51.510;11.934;2023-01-31T04:09:04;100907.59;;;3.27;100.00
18533;BME280;9396;51.510;11.934;2023-01-31T04:11:35;100917.19;;;3.28;100.00
18533;BME280;9396;51.510;11.934;2023-01-31T04:14:02;100910.34;;;3.12;100.00
18533;BME280;9396;51.510;11.934;2023-01-31T04:16:29;100910.66;;;3.07;100.00
18533;BME280;9396;51.510;11.934;2023-01-31T04:18:55;100904.25;;;2.97;100.00
18533;BME280;9396;51.510;11.934;2023-01-31T04:21:22;100903.41;;;2.97;100.00
18533;BME280;9396;51.510;11.934;2023-01-31T04:23:50;100908.28;;;2.89;100.00
18533;BME280;9396;51.510;11.934;2023-01-31T04:26:17;100902.66;;;2.81;100.00
18533;BME280;9396;51.510;11.934;2023-01-31T04:28:44;100914.84;;;2.82;100.00
18533;BME280;9396;51.510;11.934;2023-01-31T04:31:10;100915.13;;;2.77;100.00
18533;BME280;9396;51.510;11.934;2023-01-31T04:33:37;100909.69;;;2.80;100.00
18533;BME280;9396;51.510;11.934;2023-01-31T04:36:05;100919.06;;;2.84;100.00
18533;BME280;9396;51.510;11.934;2023-01-31T04:38:32;100910.66;;;2.93;100.00
18533;BME280;9396;51.510;11.934;2023-01-31T04:41:00;100912.31;;;2.94;100.00
18533;BME280;9396;51.510;11.934;2023-01-31T04:43:26;100908.84;;;2.94;100.00
18533;BME280;9396;51.510;11.934;2023-01-31T04:45:53;100913.63;;;3.01;100.00
18533;BME280;9396;51.510;11.934;2023-01-31T04:48:20;100919.34;;;3.08;100.00
18533;BME280;9396;51.510;11.934;2023-01-31T04:50:46;100913.19;;;3.09;100.00
18533;BME280;9396;51.510;11.934;2023-01-31T04:53:13;100902.84;;;3.20;100.00
18533;BME280;9396;51.510;11.934;2023-01-31T04:55:40;100897.09;;;3.13;100.00
18533;BME280;9396;51.510;11.934;2023-01-31T04:58:08;100903.22;;;3.14;100.00
18533;BME280;9396;51.510;11.934;2023-01-31T05:00:34;100902.47;;;3.12;100.00
18533;BME280;9396;51.510;11.934;2023-01-31T05:03:01;100915.88;;;3.21;100.00
18533;BME280;9396;51.510;11.934;2023-01-31T05:05:27;100912.41;;;3.21;100.00
18533;BME280;9396;51.510;11.934;2023-01-31T05:07:54;100910.19;;;3.15;100.00
18533;BME280;9396;51.510;11.934;2023-01-31T05:10:21;100918.22;;;3.12;100.00
18533;BME280;9396;51.510;11.934;2023-01-31T05:12:47;100910.25;;;3.13;100.00
18533;BME280;9396;51.510;11.934;2023-01-31T05:15:16;100912.22;;;3.10;100.00
18533;BME280;9396;51.510;11.934;2023-01-31T05:17:42;100918.03;;;3.01;100.00
18533;BME280;9396;51.510;11.934;2023-01-31T05:20:10;100912.97;;;3.12;100.00
18533;BME280;9396;51.510;11.934;2023-01-31T05:22:37;100918.63;;;3.06;100.00
18533;BME280;9396;51.510;11.934;2023-01-31T05:25:04;100916.91;;;3.05;100.00
18533;BME280;9396;51.510;11.934;2023-01-31T05:27:30;100910.91;;;3.03;100.00
18533;BME280;9396;51.510;11.934;2023-01-31T05:29:57;100922.16;;;3.05;100.00
18533;BME280;9396;51.510;11.934;2023-01-31T05:32:26;100925.75;;;3.04;100.00
18533;BME280;9396;51.510;11.934;2023-01-31T05:34:52;100917.31;;;2.99;100.00
18533;BME280;9396;51.510;11.934;2023-01-31T05:37:19;100922.72;;;2.96;100.00
18533;BME280;9396;51.510;11.934;2023-01-31T05:39:46;100925.75;;;3.04;100.00
18533;BME280;9396;51.510;11.934;2023-01-31T05:42:12;100924.81;;;3.05;100.00
18533;BME280;9396;51.510;11.934;2023-01-31T05:44:39;100922.72;;;3.10;100.00
18533;BME280;9396;51.510;11.934;2023-01-31T05:47:05;100928.19;;;3.07;100.00
18533;BME280;9396;51.510;11.934;2023-01-31T05:49:33;100931.19;;;3.15;100.00
18533;BME280;9396;51.510;11.934;2023-01-31T05:52:00;100939.00;;;3.16;100.00
18533;BME280;9396;51.510;11.934;2023-01-31T05:54:27;100931.94;;;3.17;100.00
18533;BME280;9396;51.510;11.934;2023-01-31T05:56:54;100934.38;;;3.20;100.00
18533;BME280;9396;51.510;11.934;2023-01-31T05:59:20;100944.41;;;3.13;100.00
18533;BME280;9396;51.510;11.934;2023-01-31T06:01:47;100941.72;;;3.15;100.00
18533;BME280;9396;51.510;11.934;2023-01-31T06:04:14;100943.38;;;3.16;100.00
18533;BME280;9396;51.510;11.934;2023-01-31T06:06:42;100952.22;;;3.15;100.00
18533;BME280;9396;51.510;11.934;2023-01-31T06:09:09;100951.38;;;3.14;100.00
18533;BME280;9396;51.510;11.934;2023-01-31T06:11:36;100960.13;;;3.15;100.00
18533;BME280;9396;51.510;11.934;2023-01-31T06:14:02;100953.72;;;3.19;100.00
18533;BME280;9396;51.510;11.934;2023-01-31T06:16:30;100952.94;;;3.17;100.00
18533;BME280;9396;51.510;11.934;2023-01-31T06:18:57;100953.72;;;3.19;100.00
18533;BME280;9396;51.510;11.934;2023-01-31T06:21:24;100950.25;;;3.33;100.00
18533;BME280;9396;51.510;11.934;2023-01-31T06:23:52;100975.03;;;3.28;100.00
18533;BME280;9396;51.510;11.934;2023-01-31T06:26:18;100955.03;;;3.26;100.00
18533;BME280;9396;51.510;11.934;2023-01-31T06:28:45;100953.16;;;3.28;100.00
18533;BME280;9396;51.510;11.934;2023-01-31T06:31:12;100956.63;;;3.28;100.00
18533;BME280;9396;51.510;11.934;2023-01-31T06:33:39;100970.06;;;3.38;100.00
18533;BME280;9396;51.510;11.934;2023-01-31T06:36:06;100961.22;;;3.25;100.00
18533;BME280;9396;51.510;11.934;2023-01-31T06:38:33;100967.59;;;3.35;100.00
18533;BME280;9396;51.510;11.934;2023-01-31T06:41:01;100960.78;;;3.33;100.00
18533;BME280;9396;51.510;11.934;2023-01-31T06:43:28;100961.13;;;3.41;100.00
18533;BME280;9396;51.510;11.934;2023-01-31T06:45:54;100957.06;;;3.49;100.00
18533;BME280;9396;51.510;11.934;2023-01-31T06:48:21;100965.72;;;3.51;100.00
18533;BME280;9396;51.510;11.934;2023-01-31T06:50:47;100966.19;;;3.44;100.00
18533;BME280;9396;51.510;11.934;2023-01-31T06:53:14;100973.72;;;3.36;100.00
18533;BME280;9396;51.510;11.934;2023-01-31T06:55:42;100975.50;;;3.35;100.00
18533;BME280;9396;51.510;11.934;2023-01-31T06:58:10;100973.16;;;3.31;100.00
18533;BME280;9396;51.510;11.934;2023-01-31T07:00:36;100973.41;;;3.26;100.00
18533;BME280;9396;51.510;11.934;2023-01-31T07:03:03;100967.91;;;3.16;100.00
18533;BME280;9396;51.510;11.934;2023-01-31T07:05:29;100976.53;;;3.33;100.00
18533;BME280;9396;51.510;11.934;2023-01-31T07:07:56;100971.19;;;3.34;100.00
18533;BME280;9396;51.510;11.934;2023-01-31T07:10:23;100986.84;;;3.36;100.00
18533;BME280;9396;51.510;11.934;2023-01-31T07:12:49;100990.69;;;3.44;100.00
18533;BME280;9396;51.510;11.934;2023-01-31T07:15:17;100989.38;;;3.37;100.00
18533;BME280;9396;51.510;11.934;2023-01-31T07:17:44;100981.81;;;3.33;100.00
18533;BME280;9396;51.510;11.934;2023-01-31T07:20:11;100984.13;;;3.37;100.00
18533;BME280;9396;51.510;11.934;2023-01-31T07:22:38;100985.63;;;3.41;100.00
18533;BME280;9396;51.510;11.934;2023-01-31T07:25:05;100992.03;;;3.37;100.00
18533;BME280;9396;51.510;11.934;2023-01-31T07:27:32;100973.25;;;3.43;100.00
18533;BME280;9396;51.510;11.934;2023-01-31T07:29:58;100974.81;;;3.46;100.00
18533;BME280;9396;51.510;11.934;2023-01-31T07:32:28;100969.88;;;3.41;100.00
18533;BME280;9396;51.510;11.934;2023-01-31T07:34:55;100961.78;;;3.44;100.00
18533;BME280;9396;51.510;11.934;2023-01-31T07:37:22;100955.97;;;3.39;100.00
18533;BME280;9396;51.510;11.934;2023-01-31T07:39:49;100958.22;;;3.45;100.00
18533;BME280;9396;51.510;11.934;2023-01-31T07:42:15;100957.16;;;3.62;100.00
18533;BME280;9396;51.510;11.934;2023-01-31T07:44:42;100949.78;;;3.54;100.00
18533;BME280;9396;51.510;11.934;2023-01-31T07:47:09;100950.78;;;3.52;100.00
18533;BME280;9396;51.510;11.934;2023-01-31T07:49:37;100945.63;;;3.64;100.00
18533;BME280;9396;51.510;11.934;2023-01-31T07:52:03;100943.91;;;3.77;100.00
18533;BME280;9396;51.510;11.934;2023-01-31T07:54:30;100936.91;;;3.90;99.26
18533;BME280;9396;51.510;11.934;2023-01-31T07:56:57;100942.38;;;3.87;99.10
18533;BME280;9396;51.510;11.934;2023-01-31T07:59:23;100940.47;;;3.89;98.87
18533;BME280;9396;51.510;11.934;2023-01-31T08:01:50;100930.88;;;3.88;99.11
18533;BME280;9396;51.510;11.934;2023-01-31T08:04:34;100927.50;;;3.86;99.66
18533;BME280;9396;51.510;11.934;2023-01-31T08:07:02;100927.50;;;3.86;99.99
18533;BME280;9396;51.510;11.934;2023-01-31T08:09:31;100923.78;;;4.03;99.44
18533;BME280;9396;51.510;11.934;2023-01-31T08:11:57;100916.22;;;3.98;99.68
18533;BME280;9396;51.510;11.934;2023-01-31T08:14:24;100919.00;;;3.95;99.88
18533;BME280;9396;51.510;11.934;2023-01-31T08:16:53;100913.22;;;3.90;100.00
18533;BME280;9396;51.510;11.934;2023-01-31T08:19:19;100912.34;;;3.90;100.00
18533;BME280;9396;51.510;11.934;2023-01-31T08:21:46;100911.34;;;3.92;100.00
18533;BME280;9396;51.510;11.934;2023-01-31T08:24:14;100907.94;;;3.90;100.00
18533;BME280;9396;51.510;11.934;2023-01-31T08:26:41;100907.25;;;4.01;100.00
18533;BME280;9396;51.510;11.934;2023-01-31T08:29:08;100904.03;;;4.10;99.69
18533;BME280;9396;51.510;11.934;2023-01-31T08:31:34;100899.25;;;4.02;99.50
18533;BME280;9396;51.510;11.934;2023-01-31T08:34:01;100900.53;;;4.09;98.94
18533;BME280;9396;51.510;11.934;2023-01-31T08:36:29;100899.66;;;4.23;98.36
18533;BME280;9396;51.510;11.934;2023-01-31T08:38:57;100890.38;;;4.17;98.54
18533;BME280;9396;51.510;11.934;2023-01-31T08:41:26;100886.16;;;4.27;97.97
18533;BME280;9396;51.510;11.934;2023-01-31T08:43:53;100883.63;;;4.26;97.96
18533;BME280;9396;51.510;11.934;2023-01-31T08:46:21;100878.28;;;4.40;97.88
18533;BME280;9396;51.510;11.934;2023-01-31T08:48:48;100882.94;;;4.49;98.16
18533;BME280;9396;51.510;11.934;2023-01-31T08:51:15;100867.78;;;4.53;97.60
18533;BME280;9396;51.510;11.934;2023-01-31T08:53:43;100875.91;;;4.50;96.82
18533;BME280;9396;51.510;11.934;2023-01-31T08:56:11;100870.53;;;4.51;97.07
18533;BME280;9396;51.510;11.934;2023-01-31T08:58:41;100875.91;;;4.50;97.25
18533;BME280;9396;51.510;11.934;2023-01-31T09:01:10;100862.38;;;4.42;97.72
18533;BME280;9396;51.510;11.934;2023-01-31T09:03:37;100868.22;;;4.47;96.99
18533;BME280;9396;51.510;11.934;2023-01-31T09:06:05;100859.56;;;4.45;96.17
18533;BME280;9396;51.510;11.934;2023-01-31T09:08:32;100855.13;;;4.45;96.57
18533;BME280;9396;51.510;11.934;2023-01-31T09:10:59;100858.06;;;4.41;95.91
18533;BME280;9396;51.510;11.934;2023-01-31T09:13:26;100855.13;;;4.45;95.70
18533;BME280;9396;51.510;11.934;2023-01-31T09:15:58;100852.41;;;4.47;95.03
18533;BME280;9396;51.510;11.934;2023-01-31T09:18:25;100856.59;;;4.49;94.00
18533;BME280;9396;51.510;11.934;2023-01-31T09:20:52;100857.56;;;4.48;94.55
18533;BME280;9396;51.510;11.934;2023-01-31T09:23:19;100839.53;;;4.55;94.74
18533;BME280;9396;51.510;11.934;2023-01-31T09:25:51;100843.66;;;4.59;94.29
18533;BME280;9396;51.510;11.934;2023-01-31T09:28:19;100845.78;;;4.54;94.53
18533;BME280;9396;51.510;11.934;2023-01-31T09:30:45;100854.81;;;4.50;94.31
18533;BME280;9396;51.510;11.934;2023-01-31T09:33:13;100845.84;;;4.52;94.12
18533;BME280;9396;51.510;11.934;2023-01-31T09:35:40;100842.81;;;4.58;94.67
18533;BME280;9396;51.510;11.934;2023-01-31T09:38:07;100839.13;;;4.61;93.55
18533;BME280;9396;51.510;11.934;2023-01-31T09:40:37;100852.84;;;4.66;94.15
18533;BME280;9396;51.510;11.934;2023-01-31T09:43:07;100857.59;;;4.73;93.79
18533;BME280;9396;51.510;11.934;2023-01-31T09:45:39;100849.13;;;4.68;93.41
18533;BME280;9396;51.510;11.934;2023-01-31T09:48:16;100850.09;;;4.80;93.72
18533;BME280;9396;51.510;11.934;2023-01-31T09:50:46;100851.03;;;4.79;93.49
18533;BME280;9396;51.510;11.934;2023-01-31T09:53:16;100843.53;;;4.85;93.46
18533;BME280;9396;51.510;11.934;2023-01-31T09:55:52;100839.13;;;4.98;92.97
18533;BME280;9396;51.510;11.934;2023-01-31T09:58:27;100836.03;;;4.92;93.11
18533;BME280;9396;51.510;11.934;2023-01-31T10:01:07;100838.50;;;4.95;93.53
18533;BME280;9396;51.510;11.934;2023-01-31T10:03:46;100827.91;;;5.07;93.38
18533;BME280;9396;51.510;11.934;2023-01-31T10:06:19;100827.69;;;5.10;93.88
18533;BME280;9396;51.510;11.934;2023-01-31T10:08:52;100827.78;;;5.21;93.44
18533;BME280;9396;51.510;11.934;2023-01-31T10:11:27;100815.66;;;5.19;93.41
18533;BME280;9396;51.510;11.934;2023-01-31T10:13:59;100812.59;;;5.25;92.84
18533;BME280;9396;51.510;11.934;2023-01-31T10:16:31;100810.78;;;5.25;92.44
18533;BME280;9396;51.510;11.934;2023-01-31T10:19:03;100814.25;;;5.26;91.96
18533;BME280;9396;51.510;11.934;2023-01-31T10:21:35;100800.34;;;5.24;93.03
18533;BME280;9396;51.510;11.934;2023-01-31T10:24:12;100802.81;;;5.14;93.76
18533;BME280;9396;51.510;11.934;2023-01-31T10:26:41;100793.69;;;5.18;93.38
18533;BME280;9396;51.510;11.934;2023-01-31T10:29:14;100783.16;;;5.18;94.10
18533;BME280;9396;51.510;11.934;2023-01-31T10:31:44;100792.34;;;5.13;94.21
18533;BME280;9396;51.510;11.934;2023-01-31T10:34:16;100771.25;;;5.13;94.19
18533;BME280;9396;51.510;11.934;2023-01-31T10:36:49;100763.91;;;5.05;93.77
18533;BME280;9396;51.510;11.934;2023-01-31T10:39:21;100762.34;;;5.03;94.39
18533;BME280;9396;51.510;11.934;2023-01-31T10:42:04;100749.66;;;5.08;94.27
18533;BME280;9396;51.510;11.934;2023-01-31T10:44:40;100744.16;;;5.11;94.67
18533;BME280;9396;51.510;11.934;2023-01-31T10:47:11;100764.81;;;5.17;94.34
18533;BME280;9396;51.510;11.934;2023-01-31T10:49:43;100752.50;;;5.17;94.49
18533;BME280;9396;51.510;11.934;2023-01-31T10:52:18;100746.47;;;5.15;94.89
18533;BME280;9396;51.510;11.934;2023-01-31T10:55:01;100747.31;;;5.16;94.99
18533;BME280;9396;51.510;11.934;2023-01-31T10:57:30;100730.88;;;5.12;94.38
18533;BME280;9396;51.510;11.934;2023-01-31T10:59:57;100714.22;;;5.12;94.54
18533;BME280;9396;51.510;11.934;2023-01-31T11:02:25;100725.28;;;5.17;94.54
18533;BME280;9396;51.510;11.934;2023-01-31T11:04:56;100706.81;;;5.17;94.42
18533;BME280;9396;51.510;11.934;2023-01-31T11:07:23;100718.63;;;5.11;94.34
18533;BME280;9396;51.510;11.934;2023-01-31T11:09:52;100712.97;;;5.05;95.42
18533;BME280;9396;51.510;11.934;2023-01-31T11:12:20;100722.44;;;5.07;95.08
18533;BME280;9396;51.510;11.934;2023-01-31T11:15:04;100704.47;;;5.01;95.31
18533;BME280;9396;51.510;11.934;2023-01-31T11:17:35;100691.66;;;5.08;96.16
18533;BME280;9396;51.510;11.934;2023-01-31T11:20:05;100665.31;;;5.08;95.83
18533;BME280;9396;51.510;11.934;2023-01-31T11:22:34;100665.06;;;5.11;95.47
18533;BME280;9396;51.510;11.934;2023-01-31T11:25:03;100665.72;;;5.14;95.58
18533;BME280;9396;51.510;11.934;2023-01-31T11:27:36;100675.59;;;5.11;94.86
18533;BME280;9396;51.510;11.934;2023-01-31T11:30:05;100651.50;;;5.04;95.07
18533;BME280;9396;51.510;11.934;2023-01-31T11:32:35;100481.34;;;4.07;95.25
18533;BME280;9396;51.510;11.934;2023-01-31T11:35:06;100645.44;;;5.15;95.23
18533;BME280;9396;51.510;11.934;2023-01-31T11:37:49;100640.16;;;5.15;95.81
18533;BME280;9396;51.510;11.934;2023-01-31T11:40:19;100633.84;;;5.17;94.89
18533;BME280;9396;51.510;11.934;2023-01-31T11:42:51;100621.94;;;5.12;96.10
18533;BME280;9396;51.510;11.934;2023-01-31T11:45:19;100616.44;;;5.15;95.34
18533;BME280;9396;51.510;11.934;2023-01-31T11:47:49;100625.03;;;5.06;96.09
18533;BME280;9396;51.510;11.934;2023-01-31T11:50:23;100612.81;;;5.05;96.01
18533;BME280;9396;51.510;11.934;2023-01-31T11:52:54;100606.97;;;5.12;96.08
18533;BME280;9396;51.510;11.934;2023-01-31T11:55:22;100596.75;;;5.08;96.01
18533;BME280;9396;51.510;11.934;2023-01-31T11:57:55;100591.59;;;5.06;95.24
18533;BME280;9396;51.510;11.934;2023-01-31T12:00:24;100586.47;;;5.05;95.71
18533;BME280;9396;51.510;11.934;2023-01-31T12:02:58;100576.88;;;5.15;95.08
18533;BME280;9396;51.510;11.934;2023-01-31T12:05:34;100550.78;;;5.12;96.03
18533;BME280;9396;51.510;11.934;2023-01-31T12:08:02;100551.88;;;5.20;95.58
18533;BME280;9396;51.510;11.934;2023-01-31T12:10:35;100550.81;;;5.23;96.44
18533;BME280;9396;51.510;11.934;2023-01-31T12:13:13;100549.84;;;5.24;96.19
18533;BME280;9396;51.510;11.934;2023-01-31T12:15:45;100531.47;;;5.11;96.34
18533;BME280;9396;51.510;11.934;2023-01-31T12:18:20;100540.13;;;5.24;96.28
18533;BME280;9396;51.510;11.934;2023-01-31T12:20:58;100547.78;;;5.16;96.42
18533;BME280;9396;51.510;11.934;2023-01-31T12:23:33;100538.75;;;5.08;97.14
18533;BME280;9396;51.510;11.934;2023-01-31T12:26:07;100535.69;;;5.14;96.47
18533;BME280;9396;51.510;11.934;2023-01-31T12:28:46;100526.09;;;5.24;95.90
18533;BME280;9396;51.510;11.934;2023-01-31T12:31:28;100515.44;;;5.25;96.66
18533;BME280;9396;51.510;11.934;2023-01-31T12:34:08;100509.22;;;5.26;95.79
18533;BME280;9396;51.510;11.934;2023-01-31T12:36:46;100504.88;;;5.25;96.11
18533;BME280;9396;51.510;11.934;2023-01-31T12:39:31;100502.50;;;5.22;97.02
18533;BME280;9396;51.510;11.934;2023-01-31T12:42:17;100493.28;;;5.28;95.90
18533;BME280;9396;51.510;11.934;2023-01-31T12:44:50;100410.78;;;4.82;96.78
18533;BME280;9396;51.510;11.934;2023-01-31T12:47:44;100498.78;;;5.25;96.80
18533;BME280;9396;51.510;11.934;2023-01-31T12:50:27;100503.69;;;5.18;97.21
18533;BME280;9396;51.510;11.934;2023-01-31T12:53:16;100490.38;;;5.20;96.65
18533;BME280;9396;51.510;11.934;2023-01-31T12:55:51;100487.03;;;5.18;97.24
18533;BME280;9396;51.510;11.934;2023-01-31T12:58:33;100496.75;;;5.17;97.41
18533;BME280;9396;51.510;11.934;2023-01-31T13:01:06;100431.38;;;4.77;96.89
18533;BME280;9396;51.510;11.934;2023-01-31T13:03:51;100484.75;;;5.13;97.62
18533;BME280;9396;51.510;11.934;2023-01-31T13:06:27;100474.06;;;5.15;97.56
18533;BME280;9396;51.510;11.934;2023-01-31T13:09:00;100495.66;;;5.09;97.54
18533;BME280;9396;51.510;11.934;2023-01-31T13:11:32;100462.47;;;5.17;98.05